Time;durP1;ratioP1;P1;durP2;ratioP2;P2;SDS_P1;SDS_P2;PMS_P1;PMS_P2;Temp;Humidity;BMP_temperature;BMP_pressure;BME280_temperature;BME280_humidity;BME280_pressure;Samples;Min_cycle;Max_cycle;Signal;HPM_P1;HPM_P2
2024/03/18 00:00:14;;;;;;;6.13;3.05;;;25.60;99.90;;;;;;5041777;28;20035;-43
2024/03/18 00:02:45;;;;;;;3.47;2.72;;;25.60;99.90;;;;;;5050038;28;20037;-42
2024/03/18 00:05:13;;;;;;;6.18;3.20;;;25.60;99.90;;;;;;5054256;28;20116;-42
2024/03/18 00:07:39;;;;;;;5.78;2.15;;;25.50;99.90;;;;;;5036454;28;20033;-43
2024/03/18 00:10:09;;;;;;;6.32;3.53;;;25.50;99.90;;;;;;5054426;28;20024;-44
2024/03/18 00:12:36;;;;;;;3.83;2.80;;;25.50;99.90;;;;;;5053918;28;20469;-43
2024/03/18 00:15:02;;;;;;;4.05;2.33;;;25.50;99.90;;;;;;5054530;28;20467;-43
2024/03/18 00:17:28;;;;;;;6.03;2.90;;;25.50;99.90;;;;;;5054131;28;20037;-43
2024/03/18 00:19:54;;;;;;;4.47;2.70;;;25.50;99.90;;;;;;5054121;28;20017;-43
2024/03/18 00:22:20;;;;;;;4.15;2.60;;;25.50;99.90;;;;;;5053944;28;20037;-43
2024/03/18 00:24:47;;;;;;;5.63;2.95;;;25.50;99.90;;;;;;5054270;28;20025;-43
2024/03/18 00:27:13;;;;;;;4.57;2.63;;;25.50;99.90;;;;;;5052980;28;20353;-44
2024/03/18 00:29:39;;;;;;;5.60;2.88;;;25.50;99.90;;;;;;5053627;28;20024;-43
2024/03/18 00:32:05;;;;;;;4.05;2.78;;;25.50;99.90;;;;;;5054339;28;20033;-43
2024/03/18 00:34:32;;;;;;;4.05;2.63;;;25.50;99.90;;;;;;5054271;28;20017;-44
2024/03/18 00:36:58;;;;;;;4.75;2.97;;;25.40;99.90;;;;;;5053321;28;20094;-46
2024/03/18 00:39:24;;;;;;;3.58;2.83;;;25.40;99.90;;;;;;5054118;28;20493;-45
2024/03/18 00:41:52;;;;;;;4.65;2.70;;;25.40;99.90;;;;;;5054008;28;20044;-43
2024/03/18 00:44:23;;;;;;;4.93;2.40;;;25.50;99.90;;;;;;5053944;28;20449;-43
2024/03/18 00:46:49;;;;;;;4.88;2.83;;;25.40;99.90;;;;;;5053971;28;20025;-43
2024/03/18 00:49:15;;;;;;;3.25;2.58;;;25.40;99.90;;;;;;5053766;28;20032;-43
2024/03/18 00:51:41;;;;;;;6.15;2.80;;;25.40;99.90;;;;;;5053679;28;20025;-41
2024/03/18 00:54:09;;;;;;;6.70;2.92;;;25.40;99.90;;;;;;5053041;28;20029;-42
2024/03/18 00:56:36;;;;;;;6.75;2.45;;;25.40;99.90;;;;;;5053524;28;20461;-42
2024/03/18 00:59:09;;;;;;;;;;;25.40;99.90;;;;;;5054432;28;20025;-44
2024/03/18 01:01:35;;;;;;;4.65;2.97;;;25.40;99.90;;;;;;5029927;28;19916;-41
2024/03/18 01:04:04;;;;;;;6.17;3.27;;;25.40;99.90;;;;;;5042856;28;20104;-42
2024/03/18 01:06:30;;;;;;;4.53;3.03;;;25.40;99.90;;;;;;5035904;28;20436;-41
2024/03/18 01:08:56;;;;;;;8.00;2.80;;;25.40;99.90;;;;;;5033508;28;20429;-44
2024/03/18 01:11:23;;;;;;;6.78;2.80;;;25.40;99.90;;;;;;5038496;28;20029;-42
2024/03/18 01:13:49;;;;;;;9.48;3.13;;;25.40;99.90;;;;;;5053102;28;20442;-42
2024/03/18 01:16:24;;;;;;;4.88;3.20;;;25.40;99.90;;;;;;5051868;28;20033;-42
2024/03/18 01:18:51;;;;;;;3.50;2.90;;;25.30;99.90;;;;;;5053026;28;20025;-44
2024/03/18 01:21:18;;;;;;;6.13;3.10;;;25.40;99.90;;;;;;5053121;28;20017;-44
2024/03/18 01:23:46;;;;;;;4.65;2.65;;;25.40;99.90;;;;;;5053150;28;20029;-44
2024/03/18 01:26:13;;;;;;;5.25;2.72;;;25.30;99.90;;;;;;5053224;28;20053;-43
2024/03/18 01:28:40;;;;;;;6.47;2.70;;;25.30;99.90;;;;;;5053027;28;20029;-43
2024/03/18 01:31:05;;;;;;;5.75;3.78;;;25.40;99.90;;;;;;5053107;28;20469;-43
2024/03/18 01:33:32;;;;;;;7.78;3.15;;;25.30;99.90;;;;;;5053013;28;20033;-43
2024/03/18 01:35:58;;;;;;;5.05;2.72;;;25.30;99.90;;;;;;5035010;28;20021;-43
2024/03/18 01:38:24;;;;;;;3.97;3.08;;;25.30;99.90;;;;;;5053051;28;20109;-44
2024/03/18 01:40:50;;;;;;;4.95;3.05;;;25.30;99.90;;;;;;5052784;28;20060;-44
2024/03/18 01:43:16;;;;;;;3.85;2.90;;;25.30;99.90;;;;;;5052831;28;20412;-44
2024/03/18 01:45:42;;;;;;;6.45;2.80;;;25.30;99.90;;;;;;5052755;28;20036;-44
2024/03/18 01:48:08;;;;;;;5.60;3.30;;;25.30;99.90;;;;;;5053034;28;20069;-44
2024/03/18 01:50:35;;;;;;;5.10;3.03;;;25.30;99.90;;;;;;5052758;28;20036;-44
2024/03/18 01:53:01;;;;;;;5.70;3.20;;;25.30;99.90;;;;;;5052662;28;20039;-44
2024/03/18 01:55:27;;;;;;;4.75;2.80;;;25.30;99.90;;;;;;5052682;28;20071;-44
2024/03/18 01:57:53;;;;;;;4.25;2.88;;;25.20;99.90;;;;;;5052433;28;20025;-44
2024/03/18 02:00:38;;;;;;;6.57;3.25;;;25.20;99.90;;;;;;5052933;28;20531;-44
2024/03/18 02:03:09;;;;;;;4.90;3.00;;;25.20;99.90;;;;;;5052614;28;20025;-44
2024/03/18 02:05:36;;;;;;;4.82;3.28;;;25.30;99.90;;;;;;5052343;28;20017;-44
2024/03/18 02:08:03;;;;;;;6.22;3.35;;;25.20;99.90;;;;;;5034449;28;20032;-44
2024/03/18 02:10:29;;;;;;;3.75;2.75;;;25.20;99.90;;;;;;5017920;28;20112;-44
2024/03/18 02:13:03;;;;;;;3.78;2.88;;;25.20;99.90;;;;;;5052187;28;20810;-43
2024/03/18 02:15:30;;;;;;;4.68;3.00;;;25.20;99.90;;;;;;5052372;28;20021;-43
2024/03/18 02:17:56;;;;;;;4.78;3.20;;;25.20;99.90;;;;;;5052082;28;20049;-42
2024/03/18 02:20:23;;;;;;;4.07;2.78;;;25.20;99.90;;;;;;5052164;28;20422;-43
2024/03/18 02:22:49;;;;;;;5.13;2.97;;;25.20;99.90;;;;;;5018067;28;20067;-43
2024/03/18 02:25:16;;;;;;;6.30;3.35;;;25.20;99.90;;;;;;5034280;28;20044;-43
2024/03/18 02:27:42;;;;;;;4.93;3.67;;;25.10;99.90;;;;;;5052342;28;20056;-42
2024/03/18 02:30:11;;;;;;;3.33;2.60;;;25.10;99.90;;;;;;5052333;28;20021;-41
2024/03/18 02:32:37;;;;;;;5.13;3.67;;;25.10;99.90;;;;;;5052251;28;20037;-42
2024/03/18 02:35:05;;;;;;;5.45;3.00;;;25.10;99.90;;;;;;5052140;28;20041;-43
2024/03/18 02:37:32;;;;;;;5.15;2.83;;;25.10;99.90;;;;;;5052042;28;20096;-43
2024/03/18 02:40:00;;;;;;;4.60;3.22;;;25.10;99.90;;;;;;5034572;28;20416;-43
2024/03/18 02:42:25;;;;;;;;;;;25.10;99.90;;;;;;5034477;28;20025;-43
2024/03/18 02:44:51;;;;;;;4.53;3.28;;;25.10;99.90;;;;;;5051864;28;19916;-44
2024/03/18 02:47:17;;;;;;;5.43;3.22;;;25.10;99.90;;;;;;5051853;28;20021;-42
2024/03/18 02:49:43;;;;;;;4.72;3.40;;;25.10;99.90;;;;;;5052106;28;20159;-43
2024/03/18 02:52:09;;;;;;;5.65;3.70;;;25.00;99.90;;;;;;5017529;28;20033;-43
2024/03/18 02:54:34;;;;;;;5.13;3.42;;;25.00;99.90;;;;;;5051936;28;20568;-44
2024/03/18 02:57:00;;;;;;;7.88;2.80;;;25.00;99.90;;;;;;5051852;28;20028;-43
2024/03/18 02:59:26;;;;;;;6.28;2.80;;;25.00;99.90;;;;;;5033904;28;20028;-44
2024/03/18 03:01:52;;;;;;;6.10;3.35;;;25.00;99.90;;;;;;5052406;28;20055;-43
2024/03/18 03:04:17;;;;;;;5.60;2.78;;;25.00;99.90;;;;;;5052038;28;20017;-44
2024/03/18 03:06:43;;;;;;;4.82;3.40;;;25.00;99.90;;;;;;5052122;28;20041;-44
2024/03/18 03:09:09;;;;;;;5.95;3.10;;;25.00;99.90;;;;;;5051672;28;20470;-43
2024/03/18 03:11:36;;;;;;;5.72;3.53;;;25.00;99.90;;;;;;5051619;28;20116;-43
2024/03/18 03:14:02;;;;;;;4.40;2.93;;;25.00;99.90;;;;;;5051742;28;20025;-43
2024/03/18 03:16:27;;;;;;;6.55;2.92;;;25.00;99.90;;;;;;5051523;28;20040;-43
2024/03/18 03:18:53;;;;;;;4.22;3.15;;;25.00;99.90;;;;;;5036168;28;20033;-43
2024/03/18 03:21:19;;;;;;;4.30;2.90;;;25.00;99.90;;;;;;5055263;28;20029;-42
2024/03/18 03:23:46;;;;;;;4.28;3.22;;;25.00;99.90;;;;;;5055664;28;20029;-44
2024/03/18 03:26:12;;;;;;;9.43;3.50;;;25.00;99.90;;;;;;5037625;28;20017;-44
2024/03/18 03:28:38;;;;;;;5.82;3.05;;;25.00;99.90;;;;;;5055171;28;20499;-42
2024/03/18 03:31:06;;;;;;;3.45;2.53;;;24.90;99.90;;;;;;5055141;28;20029;-43
2024/03/18 03:33:33;;;;;;;;;;;24.90;99.90;;;;;;5055701;28;20029;-43
2024/03/18 03:36:00;;;;;;;5.07;2.85;;;24.90;99.90;;;;;;5037158;28;19905;-43
2024/03/18 03:38:25;;;;;;;5.05;2.65;;;24.90;99.90;;;;;;5055330;28;20025;-43
2024/03/18 03:40:52;;;;;;;4.93;2.90;;;24.90;99.90;;;;;;5054987;28;20087;-42
2024/03/18 03:43:18;;;;;;;4.47;2.60;;;24.90;99.90;;;;;;5055255;28;20052;-42
2024/03/18 03:45:56;;;;;;;3.85;2.90;;;24.90;99.90;;;;;;5037428;28;20025;-42
2024/03/18 03:48:25;;;;;;;4.38;3.03;;;24.90;99.90;;;;;;5055024;28;20108;-42
2024/03/18 03:50:52;;;;;;;4.63;2.67;;;24.80;99.90;;;;;;5054855;28;20021;-42
2024/03/18 03:53:19;;;;;;;5.82;3.03;;;24.80;99.90;;;;;;5055100;28;20029;-42
2024/03/18 03:55:45;;;;;;;11.00;3.55;;;24.80;99.90;;;;;;5040989;28;20103;-42
2024/03/18 03:58:11;;;;;;;4.63;2.72;;;24.80;99.90;;;;;;5050592;28;20051;-42
2024/03/18 04:00:43;;;;;;;10.77;3.35;;;24.80;99.90;;;;;;5053172;28;20021;-44
2024/03/18 04:03:09;;;;;;;4.00;2.70;;;24.80;99.90;;;;;;5053922;28;20029;-44
2024/03/18 04:05:36;;;;;;;5.30;2.70;;;24.80;99.90;;;;;;5054614;28;20074;-43
2024/03/18 04:08:02;;;;;;;4.80;3.05;;;24.80;99.90;;;;;;5054500;28;20032;-44
2024/03/18 04:10:28;;;;;;;5.03;3.17;;;24.80;99.90;;;;;;5036715;28;20050;-44
2024/03/18 04:12:54;;;;;;;4.18;2.70;;;24.70;99.90;;;;;;5054075;28;20386;-43
2024/03/18 04:15:20;;;;;;;5.20;3.00;;;24.70;99.90;;;;;;5054097;28;20025;-41
2024/03/18 04:17:50;;;;;;;5.97;3.05;;;24.80;99.90;;;;;;5054282;28;20056;-41
2024/03/18 04:20:19;;;;;;;4.18;3.15;;;24.80;99.90;;;;;;5037450;28;20023;-42
2024/03/18 04:22:50;;;;;;;2.90;2.33;;;24.70;99.90;;;;;;5054645;28;20377;-43
2024/03/18 04:25:17;;;;;;;5.55;2.78;;;24.70;99.90;;;;;;5036763;28;20075;-42
2024/03/18 04:27:43;;;;;;;4.15;2.55;;;24.70;99.90;;;;;;5054283;28;20419;-42
2024/03/18 04:30:19;;;;;;;8.20;3.08;;;24.70;99.90;;;;;;5035280;28;20079;-42
2024/03/18 04:32:49;;;;;;;5.97;2.92;;;24.70;99.90;;;;;;5054319;28;20039;-42
2024/03/18 04:35:20;;;;;;;3.70;2.63;;;24.70;99.90;;;;;;5054099;28;20028;-42
2024/03/18 04:37:51;;;;;;;7.78;3.50;;;24.70;99.90;;;;;;5054166;28;20024;-42
2024/03/18 04:40:19;;;;;;;5.97;3.10;;;24.70;99.90;;;;;;5054434;28;20423;-44
2024/03/18 04:42:45;;;;;;;5.47;2.47;;;24.70;99.90;;;;;;5054103;28;20028;-43
2024/03/18 04:45:14;;;;;;;9.82;2.85;;;24.70;99.90;;;;;;5036374;28;20103;-43
2024/03/18 04:47:44;;;;;;;6.47;2.88;;;24.70;99.90;;;;;;5053899;28;20027;-43
2024/03/18 04:50:22;;;;;;;5.00;2.55;;;24.70;99.90;;;;;;5020016;28;20108;-42
2024/03/18 04:52:48;;;;;;;;;;;24.60;99.90;;;;;;5047624;28;20099;-44
2024/03/18 04:55:15;;;;;;;5.97;3.05;;;24.60;99.90;;;;;;5032170;28;19931;-44
2024/03/18 04:57:41;;;;;;;3.75;2.60;;;24.60;99.90;;;;;;5030908;28;20113;-44
2024/03/18 05:00:11;;;;;;;4.00;2.58;;;24.60;99.90;;;;;;5032565;28;20025;-43
2024/03/18 05:02:44;;;;;;;3.60;2.70;;;24.60;99.90;;;;;;5033382;28;20053;-44
2024/03/18 05:05:12;;;;;;;4.97;2.67;;;24.60;99.90;;;;;;5033698;28;20171;-42
2024/03/18 05:07:38;;;;;;;5.22;2.72;;;24.60;99.90;;;;;;5033457;28;20025;-44
2024/03/18 05:10:04;;;;;;;6.57;2.97;;;24.60;99.90;;;;;;5033649;28;20462;-43
2024/03/18 05:12:30;;;;;;;3.45;2.55;;;24.60;99.90;;;;;;5033664;28;20048;-43
2024/03/18 05:14:57;;;;;;;4.68;2.20;;;24.50;99.90;;;;;;5033670;28;20382;-44
2024/03/18 05:17:24;;;;;;;2.88;2.47;;;24.50;99.90;;;;;;5016114;28;20128;-44
2024/03/18 05:19:50;;;;;;;3.47;2.47;;;24.50;99.90;;;;;;5033706;28;20029;-44
2024/03/18 05:22:16;;;;;;;2.42;2.13;;;24.50;99.90;;;;;;5033348;28;20100;-44
2024/03/18 05:24:45;;;;;;;3.40;2.33;;;24.50;99.90;;;;;;5033385;28;20466;-44
2024/03/18 05:27:11;;;;;;;4.10;2.63;;;24.50;99.90;;;;;;5033660;28;20496;-43
2024/03/18 05:29:38;;;;;;;6.45;2.47;;;24.50;99.90;;;;;;5033420;28;20031;-42
2024/03/18 05:32:11;;;;;;;3.70;2.30;;;24.50;99.90;;;;;;5033188;28;20139;-43
2024/03/18 05:34:37;;;;;;;4.50;2.78;;;24.50;99.90;;;;;;5033164;28;20057;-42
2024/03/18 05:37:04;;;;;;;2.90;2.20;;;24.50;99.90;;;;;;5033209;28;20029;-43
2024/03/18 05:39:30;;;;;;;3.88;2.42;;;24.40;99.90;;;;;;5033079;28;21060;-42
2024/03/18 05:41:57;;;;;;;6.53;2.35;;;24.40;99.90;;;;;;5032772;28;20033;-41
2024/03/18 05:44:23;;;;;;;4.22;2.35;;;24.40;99.90;;;;;;5031919;28;20071;-42
2024/03/18 05:46:48;;;;;;;5.40;2.13;;;24.40;99.90;;;;;;5015318;28;20037;-42
2024/03/18 05:49:14;;;;;;;3.20;2.33;;;24.40;99.90;;;;;;5032782;28;20021;-42
2024/03/18 05:51:40;;;;;;;4.38;2.60;;;24.40;99.90;;;;;;5033010;28;20065;-43
2024/03/18 05:54:06;;;;;;;4.20;2.40;;;24.40;99.90;;;;;;5032875;28;20473;-42
2024/03/18 05:56:32;;;;;;;6.38;2.33;;;24.40;99.90;;;;;;5031582;28;20025;-42
2024/03/18 05:58:58;;;;;;;3.10;2.33;;;24.40;99.90;;;;;;5032821;28;20025;-42
2024/03/18 06:01:24;;;;;;;2.80;2.00;;;24.40;99.90;;;;;;5033382;28;20034;-42
2024/03/18 06:03:50;;;;;;;5.22;2.58;;;24.40;99.90;;;;;;5032623;28;20099;-42
2024/03/18 06:06:16;;;;;;;8.10;2.70;;;24.30;99.90;;;;;;5014859;28;20025;-43
2024/03/18 06:08:43;;;;;;;10.70;2.58;;;24.40;99.90;;;;;;5032310;28;20033;-43
2024/03/18 06:11:09;;;;;;;2.97;2.10;;;24.30;99.90;;;;;;5032397;28;20021;-42
2024/03/18 06:13:35;;;;;;;3.58;2.45;;;24.40;99.90;;;;;;5032413;28;20290;-42
2024/03/18 06:16:01;;;;;;;7.32;2.20;;;24.30;99.90;;;;;;5032265;28;20033;-43
2024/03/18 06:18:28;;;;;;;6.88;2.38;;;24.40;99.90;;;;;;5032524;28;20117;-43
2024/03/18 06:20:55;;;;;;;13.20;2.97;;;24.30;99.90;;;;;;5032436;28;20033;-43
2024/03/18 06:23:29;;;;;;;4.03;2.30;;;24.30;99.90;;;;;;5032191;28;20433;-43
2024/03/18 06:25:58;;;;;;;3.97;2.40;;;24.30;99.90;;;;;;5032590;28;20021;-43
2024/03/18 06:28:24;;;;;;;4.35;2.17;;;24.30;99.90;;;;;;5032465;28;20025;-42
2024/03/18 06:30:50;;;;;;;5.68;2.45;;;24.30;99.90;;;;;;5031996;28;20032;-42
2024/03/18 06:33:21;;;;;;;5.47;2.50;;;24.30;99.90;;;;;;5032168;28;20041;-42
2024/03/18 06:35:48;;;;;;;3.00;2.38;;;24.30;99.90;;;;;;5031941;28;20025;-42
2024/03/18 06:38:14;;;;;;;4.60;1.95;;;24.30;99.90;;;;;;5032213;28;20017;-43
2024/03/18 06:40:41;;;;;;;4.03;2.40;;;24.20;99.90;;;;;;5032125;28;20033;-43
2024/03/18 06:43:07;;;;;;;4.80;2.40;;;24.20;99.90;;;;;;5031938;28;20034;-43
2024/03/18 06:45:36;;;;;;;8.50;3.15;;;24.30;99.90;;;;;;5031873;28;20026;-44
2024/03/18 06:48:06;;;;;;;2.72;2.17;;;24.20;99.90;;;;;;5031876;28;20060;-43
2024/03/18 06:50:35;;;;;;;4.00;2.22;;;24.20;99.90;;;;;;5030677;28;20025;-43
2024/03/18 06:53:01;;;;;;;7.15;2.05;;;24.20;99.90;;;;;;5032666;28;20076;-44
2024/03/18 06:55:30;;;;;;;7.97;2.47;;;24.20;99.90;;;;;;5036195;28;20057;-43
2024/03/18 06:57:56;;;;;;;6.05;2.55;;;24.20;99.90;;;;;;5036110;28;20466;-44
2024/03/18 07:00:23;;;;;;;5.05;2.25;;;24.20;99.90;;;;;;5034604;28;20511;-47
2024/03/18 07:02:50;;;;;;;5.50;2.55;;;24.20;99.90;;;;;;5035964;28;20040;-44
2024/03/18 07:05:22;;;;;;;5.60;2.60;;;24.20;99.90;;;;;;5035865;28;20036;-44
2024/03/18 07:07:48;;;;;;;4.97;2.15;;;24.20;99.90;;;;;;5035795;28;20032;-43
2024/03/18 07:10:14;;;;;;;8.43;2.90;;;24.20;99.90;;;;;;5035758;28;20037;-43
2024/03/18 07:12:42;;;;;;;7.22;2.58;;;24.20;99.90;;;;;;5034279;28;20037;-44
2024/03/18 07:15:09;;;;;;;8.80;2.95;;;24.20;99.90;;;;;;5035819;28;20028;-43
2024/03/18 07:17:36;;;;;;;5.63;2.70;;;24.20;99.90;;;;;;5035560;28;20081;-43
2024/03/18 07:20:04;;;;;;;6.20;2.42;;;24.20;99.90;;;;;;5035725;28;20029;-44
2024/03/18 07:22:29;;;;;;;6.25;3.10;;;24.20;99.90;;;;;;5038445;28;20029;-46
2024/03/18 07:24:55;;;;;;;4.50;3.10;;;24.20;99.90;;;;;;5054246;28;20025;-42
2024/03/18 07:27:22;;;;;;;6.07;2.60;;;24.10;99.90;;;;;;5055305;28;20025;-45
2024/03/18 07:29:47;;;;;;;8.90;3.30;;;24.10;99.90;;;;;;5053964;28;20021;-43
2024/03/18 07:32:15;;;;;;;5.80;3.90;;;24.20;99.90;;;;;;5053404;28;20025;-42
2024/03/18 07:34:41;;;;;;;7.93;3.65;;;24.20;99.90;;;;;;5055029;28;20056;-43
2024/03/18 07:37:06;;;;;;;5.97;3.92;;;24.20;99.90;;;;;;5055145;28;20032;-42
2024/03/18 07:39:32;;;;;;;6.80;3.53;;;24.20;99.90;;;;;;5055185;28;20032;-44
2024/03/18 07:41:59;;;;;;;4.70;3.17;;;24.20;99.90;;;;;;5037449;28;20106;-44
2024/03/18 07:44:25;;;;;;;5.23;2.97;;;24.20;99.90;;;;;;5055055;28;20017;-42
2024/03/18 07:46:51;;;;;;;4.88;2.72;;;24.20;99.90;;;;;;5055160;28;20079;-43
2024/03/18 07:49:16;;;;;;;5.22;3.05;;;24.20;99.90;;;;;;5055027;28;20045;-42
2024/03/18 07:51:42;;;;;;;5.30;3.38;;;24.20;99.90;;;;;;5036875;28;20423;-43
2024/03/18 07:54:09;;;;;;;8.60;3.60;;;24.20;99.90;;;;;;5036946;28;20116;-41
2024/03/18 07:56:35;;;;;;;3.80;2.88;;;24.20;99.90;;;;;;5054755;28;20438;-41
2024/03/18 07:59:00;;;;;;;6.05;3.60;;;24.20;99.90;;;;;;5055226;28;20071;-42
2024/03/18 08:01:26;;;;;;;4.95;2.92;;;24.20;99.90;;;;;;5054923;28;20470;-42
2024/03/18 08:03:52;;;;;;;6.03;3.55;;;24.20;99.90;;;;;;5054535;28;20103;-42
2024/03/18 08:06:18;;;;;;;6.20;3.75;;;24.20;99.90;;;;;;5054725;28;20405;-42
2024/03/18 08:08:44;;;;;;;7.35;3.65;;;24.20;99.90;;;;;;5054637;28;20452;-41
2024/03/18 08:11:10;;;;;;;6.05;4.00;;;24.20;99.90;;;;;;5054649;28;20035;-42
2024/03/18 08:13:36;;;;;;;5.55;3.92;;;24.20;99.90;;;;;;5036761;28;20384;-42
2024/03/18 08:16:02;;;;;;;4.78;3.30;;;24.20;99.90;;;;;;5054808;28;20021;-42
2024/03/18 08:18:28;;;;;;;13.55;3.25;;;24.20;99.90;;;;;;5054544;28;20033;-42
2024/03/18 08:20:54;;;;;;;8.20;2.75;;;24.20;99.90;;;;;;5054478;28;20111;-42
2024/03/18 08:23:20;;;;;;;4.47;3.40;;;24.20;99.90;;;;;;5054456;28;20037;-41
2024/03/18 08:25:46;;;;;;;6.10;3.28;;;24.20;99.90;;;;;;5036545;28;20512;-44
2024/03/18 08:28:12;;;;;;;6.55;3.35;;;24.20;99.90;;;;;;5054164;28;20021;-43
2024/03/18 08:30:38;;;;;;;6.22;3.40;;;24.20;99.90;;;;;;5054243;28;20406;-42
2024/03/18 08:33:05;;;;;;;6.82;3.63;;;24.20;99.90;;;;;;5036282;28;20485;-42
2024/03/18 08:35:32;;;;;;;6.57;3.20;;;24.20;99.90;;;;;;5054489;28;20028;-42
2024/03/18 08:37:58;;;;;;;4.70;2.70;;;24.20;99.90;;;;;;5036170;28;20032;-43
2024/03/18 08:40:24;;;;;;;6.78;3.47;;;24.20;99.90;;;;;;5036108;28;20389;-42
2024/03/18 08:42:51;;;;;;;5.43;3.30;;;24.20;99.90;;;;;;5054173;28;20028;-43
2024/03/18 08:45:17;;;;;;;5.75;3.20;;;24.20;99.90;;;;;;5054200;28;20028;-42
2024/03/18 08:47:43;;;;;;;4.53;3.55;;;24.20;99.90;;;;;;5054058;28;20048;-43
2024/03/18 08:50:09;;;;;;;6.13;3.92;;;24.20;99.90;;;;;;5053932;28;20021;-43
2024/03/18 08:52:38;;;;;;;7.20;4.03;;;24.20;99.90;;;;;;5053808;28;20124;-43
2024/03/18 08:55:07;;;;;;;4.47;3.40;;;24.20;99.90;;;;;;5054212;28;20036;-42
2024/03/18 08:57:33;;;;;;;8.18;3.88;;;24.20;99.90;;;;;;5054003;28;20029;-43
2024/03/18 09:00:00;;;;;;;4.50;3.33;;;24.20;99.90;;;;;;5053891;28;20423;-43
2024/03/18 09:02:27;;;;;;;6.20;3.28;;;24.20;99.90;;;;;;5036224;28;20051;-42
2024/03/18 09:04:53;;;;;;;5.28;3.30;;;24.20;99.90;;;;;;5053772;28;20104;-43
2024/03/18 09:07:19;;;;;;;7.80;3.33;;;24.20;99.90;;;;;;5053671;28;20025;-43
2024/03/18 09:09:45;;;;;;;8.85;3.63;;;24.20;99.90;;;;;;5053724;28;20025;-43
2024/03/18 09:12:10;;;;;;;6.95;3.53;;;24.30;99.90;;;;;;5053540;28;20037;-43
2024/03/18 09:14:36;;;;;;;7.25;3.70;;;24.20;99.90;;;;;;5053732;28;20079;-44
2024/03/18 09:17:02;;;;;;;4.45;3.25;;;24.20;99.90;;;;;;5052569;28;20049;-43
2024/03/18 09:19:29;;;;;;;4.57;3.17;;;24.20;99.90;;;;;;5053275;28;20489;-43
2024/03/18 09:21:55;;;;;;;7.80;3.17;;;24.20;99.90;;;;;;5035307;28;20040;-43
2024/03/18 09:24:21;;;;;;;10.80;3.75;;;24.20;99.90;;;;;;5035394;28;20273;-43
2024/03/18 09:26:47;;;;;;;5.78;3.13;;;24.30;99.90;;;;;;5053147;28;20029;-43
2024/03/18 09:29:13;;;;;;;5.35;3.45;;;24.30;99.90;;;;;;5053185;28;20057;-43
2024/03/18 09:31:39;;;;;;;8.23;3.50;;;24.30;99.90;;;;;;5053217;28;20116;-43
2024/03/18 09:34:06;;;;;;;7.10;3.10;;;24.30;99.90;;;;;;5035337;28;20095;-43
2024/03/18 09:36:33;;;;;;;4.38;3.15;;;24.30;99.90;;;;;;5052940;28;20033;-43
2024/03/18 09:38:59;;;;;;;9.15;3.47;;;24.30;99.90;;;;;;5052955;28;20071;-44
2024/03/18 09:41:26;;;;;;;7.35;2.90;;;24.30;99.90;;;;;;5052972;28;20025;-43
2024/03/18 09:43:52;;;;;;;4.88;2.90;;;24.30;99.90;;;;;;5052926;28;20083;-44
2024/03/18 09:46:21;;;;;;;7.03;3.55;;;24.30;99.90;;;;;;5052777;28;20025;-44
2024/03/18 09:48:47;;;;;;;11.07;3.53;;;24.30;99.90;;;;;;5052764;28;20024;-44
2024/03/18 09:51:20;;;;;;;5.47;3.22;;;24.30;99.90;;;;;;5035062;28;20024;-48
2024/03/18 09:53:46;;;;;;;6.70;3.47;;;24.30;99.90;;;;;;5052758;28;20035;-43
2024/03/18 09:56:15;;;;;;;7.25;3.58;;;24.40;99.90;;;;;;5052665;28;20029;-42
2024/03/18 09:58:42;;;;;;;9.95;3.78;;;24.40;99.90;;;;;;5052822;28;20045;-43
2024/03/18 10:01:13;;;;;;;6.68;3.65;;;24.40;99.90;;;;;;5052833;28;20040;-43
2024/03/18 10:03:42;;;;;;;3.75;2.63;;;24.40;99.90;;;;;;5052877;28;20021;-43
2024/03/18 10:06:08;;;;;;;5.43;3.25;;;24.40;99.90;;;;;;5052724;28;20056;-42
2024/03/18 10:08:39;;;;;;;6.22;3.72;;;24.50;99.90;;;;;;5052491;28;20025;-41
2024/03/18 10:11:13;;;;;;;10.27;4.03;;;24.50;99.90;;;;;;5052484;28;20044;-43
2024/03/18 10:13:39;;;;;;;8.38;3.42;;;24.50;99.90;;;;;;5052552;28;20021;-44
2024/03/18 10:16:05;;;;;;;7.47;3.72;;;24.50;99.90;;;;;;5052119;28;20024;-43
2024/03/18 10:18:30;;;;;;;9.18;3.67;;;24.50;99.90;;;;;;5052316;28;20116;-43
2024/03/18 10:21:00;;;;;;;9.88;3.80;;;24.60;99.90;;;;;;5052178;28;20025;-43
2024/03/18 10:23:26;;;;;;;10.63;3.70;;;24.60;99.90;;;;;;5052279;28;20025;-43
2024/03/18 10:25:53;;;;;;;5.90;3.83;;;24.60;99.90;;;;;;5052294;28;20355;-44
2024/03/18 10:28:20;;;;;;;4.83;2.83;;;24.70;99.90;;;;;;5052236;28;20067;-43
2024/03/18 10:30:46;;;;;;;8.65;3.90;;;24.70;99.90;;;;;;5052177;28;20285;-44
2024/03/18 10:33:17;;;;;;;9.88;3.17;;;24.70;99.90;;;;;;5052201;28;20064;-45
2024/03/18 10:35:48;;;;;;;6.13;3.63;;;24.70;99.90;;;;;;5026781;28;20484;-43
2024/03/18 10:38:23;;;;;;;5.75;3.20;;;24.70;99.90;;;;;;5034513;28;20025;-43
2024/03/18 10:40:53;;;;;;;6.07;3.38;;;24.70;99.90;;;;;;5025598;28;20107;-43
2024/03/18 10:43:24;;;;;;;7.55;4.18;;;24.70;99.90;;;;;;5042340;28;20033;-44
2024/03/18 10:45:53;;;;;;;7.90;4.15;;;24.70;99.90;;;;;;5040245;28;20036;-46
2024/03/18 10:48:19;;;;;;;10.43;3.47;;;24.80;99.90;;;;;;5049600;28;20013;-45
2024/03/18 10:50:46;;;;;;;7.25;3.88;;;24.80;99.90;;;;;;5051999;28;20033;-44
2024/03/18 10:53:18;;;;;;;6.65;3.65;;;24.80;99.90;;;;;;5051619;28;20067;-44
2024/03/18 10:55:47;;;;;;;8.32;3.80;;;24.80;99.90;;;;;;5050384;28;20075;-45
2024/03/18 10:58:13;;;;;;;9.07;3.70;;;24.80;99.90;;;;;;5051132;28;20083;-45
2024/03/18 11:00:39;;;;;;;9.55;3.90;;;24.80;99.90;;;;;;5033109;28;20469;-44
2024/03/18 11:03:16;;;;;;;10.93;4.38;;;24.80;99.90;;;;;;5051616;28;20036;-43
2024/03/18 11:05:50;;;;;;;9.50;4.32;;;24.80;99.90;;;;;;5052073;28;20029;-45
2024/03/18 11:08:18;;;;;;;7.70;4.22;;;24.80;99.90;;;;;;5051991;28;20029;-44
2024/03/18 11:10:44;;;;;;;6.65;4.05;;;24.80;99.90;;;;;;5051979;28;20033;-44
2024/03/18 11:13:15;;;;;;;7.85;3.78;;;24.80;99.90;;;;;;5051821;28;20043;-45
2024/03/18 11:16:06;;;;;;;7.80;4.07;;;24.80;99.90;;;;;;5051981;28;20457;-44
2024/03/18 11:18:34;;;;;;;6.53;3.70;;;24.80;99.90;;;;;;5012012;28;20415;-45
2024/03/18 11:21:02;;;;;;;7.75;4.35;;;24.90;99.90;;;;;;5010690;28;20443;-44
2024/03/18 11:23:32;;;;;;;7.57;4.53;;;24.80;99.90;;;;;;5027066;28;20033;-44
2024/03/18 11:26:10;;;;;;;8.23;4.00;;;24.80;99.90;;;;;;5012091;28;20026;-43
2024/03/18 11:28:46;;;;;;;6.70;3.75;;;24.80;99.90;;;;;;5010829;28;20495;-42
2024/03/18 11:31:15;;;;;;;7.95;4.20;;;24.80;99.90;;;;;;5012027;28;20375;-44
2024/03/18 11:33:44;;;;;;;7.78;3.78;;;24.80;99.90;;;;;;5012212;28;20041;-43
2024/03/18 11:36:17;;;;;;;9.38;3.90;;;24.90;99.90;;;;;;5012007;28;20033;-44
2024/03/18 11:38:43;;;;;;;9.48;4.25;;;24.90;99.90;;;;;;5010796;28;20014;-43
2024/03/18 11:41:08;;;;;;;6.85;3.50;;;24.90;99.90;;;;;;5005041;28;20076;-45
2024/03/18 11:43:36;;;;;;;7.18;4.22;;;24.90;99.90;;;;;;5005791;28;20097;-45
2024/03/18 11:46:05;;;;;;;;;;;24.90;99.90;;;;;;4996263;28;20029;-43
2024/03/18 11:48:31;;;;;;;7.07;3.88;;;25.00;99.90;;;;;;5002834;28;19992;-43
2024/03/18 11:50:57;;;;;;;5.72;3.40;;;25.00;99.90;;;;;;5003649;28;20046;-42
2024/03/18 11:53:24;;;;;;;10.70;3.38;;;25.00;99.90;;;;;;5005480;28;20080;-44
2024/03/18 11:55:54;;;;;;;9.45;3.70;;;25.00;99.90;;;;;;5015280;28;20022;-44
2024/03/18 11:58:20;;;;;;;8.02;3.67;;;25.00;99.90;;;;;;5015214;28;20375;-45
2024/03/18 12:00:49;;;;;;;5.95;3.15;;;25.10;99.90;;;;;;5015361;28;20045;-44
2024/03/18 12:03:16;;;;;;;7.95;3.55;;;25.10;99.90;;;;;;5014686;28;20021;-44
2024/03/18 12:05:44;;;;;;;10.32;3.50;;;25.10;99.90;;;;;;5005430;28;20033;-44
2024/03/18 12:08:20;;;;;;;6.68;3.70;;;25.10;99.90;;;;;;5003945;28;20022;-45
2024/03/18 12:10:54;;;;;;;8.15;3.17;;;25.10;99.90;;;;;;5003331;28;20537;-44
2024/03/18 12:13:25;;;;;;;8.60;3.70;;;25.10;99.90;;;;;;4995495;28;20084;-44
2024/03/18 12:15:51;;;;;;;11.15;3.92;;;25.20;99.90;;;;;;4995446;28;20085;-42
2024/03/18 12:18:18;;;;;;;9.90;3.95;;;25.20;99.90;;;;;;4995094;28;20122;-45
2024/03/18 12:20:44;;;;;;;6.90;3.17;;;25.20;99.90;;;;;;5011132;28;20470;-43
2024/03/18 12:28:32;;;;;;;6.25;3.90;;;25.20;99.90;;;;;;5011942;28;20037;-42
2024/03/18 12:28:50;;;;;;;7.32;3.15;;;25.20;99.90;;;;;;5007270;28;20082;-43
2024/03/18 12:31:19;;;;;;;10.70;3.33;;;25.20;99.90;;;;;;5008702;28;20034;-43
2024/03/18 12:33:46;;;;;;;4.22;3.15;;;25.20;99.90;;;;;;5010095;28;20060;-42
2024/03/18 12:36:15;;;;;;;5.70;3.22;;;25.20;99.90;;;;;;4994880;28;20042;-42
2024/03/18 12:38:42;;;;;;;5.90;2.80;;;25.30;99.90;;;;;;4994778;28;20506;-43
2024/03/18 12:41:14;;;;;;;9.05;3.47;;;25.20;99.90;;;;;;4994854;28;20025;-43
2024/03/18 12:43:42;;;;;;;8.73;5.72;;;25.20;99.90;;;;;;4994829;28;20089;-42
2024/03/18 12:46:08;;;;;;;8.93;3.70;;;25.20;99.90;;;;;;4994604;28;20068;-42
2024/03/18 12:48:35;;;;;;;9.30;3.63;;;25.20;99.90;;;;;;4994856;28;20053;-42
2024/03/18 12:51:01;;;;;;;6.93;3.65;;;25.10;99.90;;;;;;4993479;28;20471;-43